Time;durP1;ratioP1;P1;durP2;ratioP2;P2;SDS_P1;SDS_P2;PMS_P1;PMS_P2;Temp;Humidity;BMP_temperature;BMP_pressure;BME280_temperature;BME280_humidity;BME280_pressure;Samples;Min_cycle;Max_cycle;Signal;HPM_P1;HPM_P2
2022/09/01 00:01:02;;;;;;;0.90;0.70;;;;;;;15.23;100.00;102370.06;5048304;28;20450;-70
2022/09/01 00:03:28;;;;;;;0.90;0.90;;;;;;;15.37;100.00;102396.19;5046868;28;20434;-70
2022/09/01 00:05:55;;;;;;;0.80;0.60;;;;;;;15.87;100.00;102488.25;5048346;28;20543;-70
2022/09/01 00:08:22;;;;;;;0.70;0.60;;;;;;;15.69;100.00;102477.06;5045778;28;20842;-70
2022/09/01 00:10:48;;;;;;;0.83;0.60;;;;;;;15.74;100.00;102451.09;5047631;28;20452;-70
2022/09/01 00:13:14;;;;;;;3.90;0.87;;;;;;;15.32;100.00;102392.41;5030055;28;20473;-71
2022/09/01 00:15:40;;;;;;;1.37;0.90;;;;;;;14.99;100.00;102333.44;5046993;28;20982;-70
2022/09/01 00:18:06;;;;;;;1.27;0.87;;;;;;;15.87;100.00;102485.53;5029912;28;20203;-70
2022/09/01 00:20:31;;;;;;;1.87;0.50;;;;;;;15.95;100.00;102488.13;5050344;28;20428;-70
2022/09/01 00:22:59;;;;;;;1.47;0.90;;;;;;;15.52;100.00;102417.75;5028913;28;20176;-70
2022/09/01 00:25:26;;;;;;;1.53;0.90;;;;;;;15.75;100.00;102474.41;5051401;28;20609;-71
2022/09/01 00:27:53;;;;;;;1.47;0.73;;;;;;;15.67;100.00;102455.56;5050892;28;20954;-71
2022/09/01 00:30:19;;;;;;;5.03;0.60;;;;;;;15.84;100.00;102468.88;5051805;28;20493;-70
2022/09/01 00:32:45;;;;;;;0.70;0.70;;;;;;;15.86;100.00;102483.88;5048444;28;20551;-71
2022/09/01 00:35:13;;;;;;;1.20;0.77;;;;;;;15.65;100.00;102473.00;5052318;28;20407;-71
2022/09/01 00:37:38;;;;;;;0.90;0.80;;;;;;;15.03;100.00;102358.22;5049125;28;20468;-71
2022/09/01 00:40:05;;;;;;;1.00;0.77;;;;;;;15.79;100.00;102469.44;5032446;28;20437;-71
2022/09/01 00:42:30;;;;;;;0.90;0.90;;;;;;;15.58;100.00;102437.78;5050110;28;20186;-70
2022/09/01 00:44:56;;;;;;;1.07;0.70;;;;;;;15.81;100.00;102478.22;5050330;28;20469;-70
2022/09/01 00:47:21;;;;;;;0.90;0.70;;;;;;;15.86;100.00;102483.06;5050538;28;20231;-70
2022/09/01 00:49:49;;;;;;;0.70;0.60;;;;;;;15.91;100.00;102475.16;5051401;28;20218;-70
2022/09/01 00:52:29;;;;;;;0.80;0.73;;;;;;;15.94;100.00;102472.94;5048948;28;20290;-70
2022/09/01 00:54:58;;;;;;;3.30;0.97;;;;;;;15.38;100.00;102405.97;5051340;28;20413;-70
2022/09/01 00:57:24;;;;;;;1.00;0.70;;;;;;;15.85;100.00;102484.06;5050781;28;20450;-71
2022/09/01 00:59:59;;;;;;;1.50;1.00;;;;;;;15.61;100.00;102415.78;5051192;28;20418;-70
2022/09/01 01:02:25;;;;;;;0.80;0.70;;;;;;;14.62;100.00;102278.59;5049722;28;20877;-71
2022/09/01 01:04:54;;;;;;;0.90;0.70;;;;;;;15.35;100.00;102383.91;5033610;28;20899;-70
2022/09/01 01:07:21;;;;;;;1.47;0.73;;;;;;;15.44;100.00;102401.66;5031254;28;20495;-70
2022/09/01 01:09:48;;;;;;;1.00;0.60;;;;;;;15.73;100.00;102467.50;5031725;28;20418;-71
2022/09/01 01:12:16;;;;;;;0.80;0.60;;;;;;;15.79;100.00;102462.19;5050510;28;20450;-70
2022/09/01 01:14:44;;;;;;;0.97;0.87;;;;;;;15.52;100.00;102442.09;5038629;28;20449;-70
2022/09/01 01:17:10;;;;;;;0.93;0.63;;;;;;;15.89;100.00;102469.13;5050203;28;20933;-71
2022/09/01 01:23:04;;;;;;;2.57;1.03;;;;;;;15.87;100.00;102460.38;5048782;28;20706;-71
2022/09/01 01:25:34;;;;;;;1.27;0.80;;;;;;;16.00;100.00;102474.84;5019933;28;20466;-71
2022/09/01 01:28:05;;;;;;;2.10;0.80;;;;;;;15.68;100.00;102413.16;5026486;28;20488;-70
2022/09/01 01:30:32;;;;;;;1.73;1.07;;;;;;;14.98;100.00;102310.13;5050657;28;20429;-70
2022/09/01 01:32:58;;;;;;;0.80;0.70;;;;;;;15.13;100.00;102321.75;5047696;28;20440;-70
2022/09/01 01:35:25;;;;;;;0.93;0.80;;;;;;;15.43;100.00;102369.44;5049773;28;20444;-71
2022/09/01 01:37:50;;;;;;;1.10;0.70;;;;;;;15.69;100.00;102428.38;5031910;28;20570;-70
2022/09/01 01:40:19;;;;;;;0.90;0.67;;;;;;;15.80;100.00;102463.00;5050088;28;20833;-70
2022/09/01 01:42:46;;;;;;;1.53;0.90;;;;;;;15.88;100.00;102454.78;5050307;28;20183;-71
2022/09/01 01:45:19;;;;;;;0.67;0.60;;;;;;;15.91;100.00;102459.78;5049431;28;20965;-70
2022/09/01 01:47:50;;;;;;;0.70;0.70;;;;;;;15.81;100.00;102462.81;5050319;28;20442;-71
2022/09/01 01:50:16;;;;;;;1.30;0.90;;;;;;;15.61;100.00;102429.28;5049996;28;20415;-70
2022/09/01 01:52:41;;;;;;;1.07;0.70;;;;;;;15.03;100.00;102366.31;5048231;28;20445;-70
2022/09/01 01:55:11;;;;;;;1.77;0.70;;;;;;;15.37;100.00;102417.81;5049258;28;20176;-71
2022/09/01 01:57:38;;;;;;;1.07;0.73;;;;;;;15.75;100.00;102460.88;5032566;28;20253;-70
2022/09/01 02:00:05;;;;;;;0.80;0.60;;;;;;;15.43;100.00;102442.44;5049685;28;20444;-71
2022/09/01 02:02:30;;;;;;;1.20;0.70;;;;;;;15.40;100.00;102440.13;5047902;28;20473;-70
2022/09/01 02:04:56;;;;;;;1.10;0.60;;;;;;;15.38;100.00;102449.22;5050282;28;20556;-71
2022/09/01 02:07:22;;;;;;;1.90;0.90;;;;;;;15.45;100.00;102461.97;5047835;28;20217;-71
2022/09/01 02:09:47;;;;;;;0.70;0.70;;;;;;;15.40;100.00;102459.88;5049947;28;20183;-71
2022/09/01 02:12:13;;;;;;;0.90;0.80;;;;;;;15.11;100.00;102377.84;5048702;28;20184;-71
2022/09/01 02:14:38;;;;;;;1.67;1.13;;;;;;;14.78;100.00;102345.06;5047520;28;20180;-70
2022/09/01 02:17:06;;;;;;;0.70;0.60;;;;;;;14.19;100.00;102264.94;5049459;28;20204;-70
2022/09/01 02:19:36;;;;;;;0.83;0.70;;;;;;;15.43;100.00;102472.19;5049728;28;20676;-71
2022/09/01 02:22:02;;;;;;;1.30;0.73;;;;;;;14.92;100.00;102379.28;5031685;28;20434;-71
2022/09/01 02:24:30;;;;;;;1.00;0.70;;;;;;;15.30;100.00;102467.44;5047674;28;20535;-71
2022/09/01 02:26:59;;;;;;;0.97;0.70;;;;;;;15.43;100.00;102466.75;5048829;28;20195;-71
2022/09/01 02:29:27;;;;;;;0.80;0.80;;;;;;;15.45;100.00;102462.84;5030964;28;20848;-71
2022/09/01 02:31:54;;;;;;;0.80;0.77;;;;;;;15.35;100.00;102465.00;5038367;28;20414;-71
2022/09/01 02:34:22;;;;;;;2.60;1.13;;;;;;;15.60;100.00;102458.22;5030937;28;20446;-71
2022/09/01 02:36:51;;;;;;;1.57;0.80;;;;;;;15.58;100.00;102462.97;5049191;28;20425;-71
2022/09/01 02:39:33;;;;;;;1.00;0.90;;;;;;;15.71;100.00;102456.91;5046403;28;20525;-70
2022/09/01 02:42:00;;;;;;;0.93;0.70;;;;;;;15.58;100.00;102437.78;5048301;28;20426;-71
2022/09/01 02:44:27;;;;;;;2.47;1.00;;;;;;;15.46;100.00;102429.34;5047669;28;20465;-71
2022/09/01 02:46:53;;;;;;;1.00;0.80;;;;;;;14.95;100.00;102340.25;5049035;28;20482;-71
2022/09/01 02:49:24;;;;;;;1.43;1.00;;;;;;;15.72;100.00;102446.91;5049622;28;20418;-71
2022/09/01 02:51:52;;;;;;;1.33;0.80;;;;;;;15.73;100.00;102452.13;5023910;28;20192;-71
2022/09/01 02:54:21;;;;;;;1.77;0.90;;;;;;;14.86;100.00;102303.56;5045667;28;20434;-71
2022/09/01 02:56:47;;;;;;;1.10;1.00;;;;;;;15.31;100.00;102342.06;5048702;28;20837;-71
2022/09/01 02:59:14;;;;;;;1.20;1.00;;;;;;;15.85;100.00;102447.00;5046246;28;20840;-71
2022/09/01 03:01:41;;;;;;;0.90;0.70;;;;;;;15.15;100.00;102335.03;5030120;28;20950;-71
2022/09/01 03:04:11;;;;;;;0.70;0.63;;;;;;;15.91;100.00;102453.50;5048656;28;20434;-71
2022/09/01 03:06:38;;;;;;;0.90;0.70;;;;;;;15.95;100.00;102444.81;5049094;28;20413;-71
2022/09/01 03:09:07;;;;;;;1.90;0.70;;;;;;;15.58;100.00;102376.41;5043687;28;20441;-71
2022/09/01 03:11:36;;;;;;;0.93;0.80;;;;;;;15.83;100.00;102432.88;5048398;28;20431;-71
2022/09/01 03:14:02;;;;;;;0.90;0.80;;;;;;;14.94;100.00;102306.16;5031035;28;20467;-71
2022/09/01 03:16:31;;;;;;;0.93;0.80;;;;;;;15.78;100.00;102441.56;5029755;28;20433;-71
2022/09/01 03:18:57;;;;;;;1.00;0.80;;;;;;;15.73;100.00;102421.53;5029748;28;20511;-71
2022/09/01 03:21:23;;;;;;;2.33;0.90;;;;;;;15.86;100.00;102434.34;5048478;28;20422;-71
2022/09/01 03:23:50;;;;;;;0.93;0.83;;;;;;;15.67;100.00;102433.91;5045920;28;20438;-71
2022/09/01 03:26:19;;;;;;;1.40;1.00;;;;;;;15.33;100.00;102392.22;5048565;28;20854;-71
2022/09/01 03:28:46;;;;;;;1.43;0.67;;;;;;;15.29;100.00;102401.72;5048272;28;20453;-71
2022/09/01 03:31:12;;;;;;;0.90;0.80;;;;;;;15.70;100.00;102438.97;5047135;28;20516;-71
2022/09/01 03:33:37;;;;;;;3.10;0.80;;;;;;;15.84;100.00;102429.13;5048320;28;20425;-71
2022/09/01 03:36:04;;;;;;;2.33;1.00;;;;;;;15.86;100.00;102427.06;5030613;28;20421;-71
2022/09/01 03:38:30;;;;;;;1.10;0.93;;;;;;;15.83;100.00;102438.28;5031194;28;20611;-71
2022/09/01 03:41:02;;;;;;;1.00;0.90;;;;;;;15.26;100.00;102388.59;5045546;28;20444;-71
2022/09/01 03:43:29;;;;;;;1.10;1.00;;;;;;;15.70;100.00;102419.22;5048435;28;20465;-71
2022/09/01 03:45:59;;;;;;;1.60;1.30;;;;;;;15.52;100.00;102363.69;5048360;28;20541;-71
2022/09/01 03:48:27;;;;;;;1.60;0.90;;;;;;;15.73;100.00;102418.81;5048092;28;20442;-71
2022/09/01 03:50:55;;;;;;;1.67;1.00;;;;;;;14.88;100.00;102290.72;5047304;28;20440;-71
2022/09/01 03:53:23;;;;;;;1.00;0.80;;;;;;;15.76;100.00;102438.19;5047892;28;20453;-70
2022/09/01 03:55:49;;;;;;;1.10;0.87;;;;;;;15.65;100.00;102389.16;5050765;28;20505;-71
2022/09/01 03:58:20;;;;;;;0.93;0.83;;;;;;;15.44;100.00;102374.63;5033981;28;20538;-71
2022/09/01 04:00:49;;;;;;;1.33;1.10;;;;;;;15.56;100.00;102392.03;5051417;28;20168;-71
2022/09/01 04:03:20;;;;;;;1.33;0.90;;;;;;;15.80;100.00;102436.78;5049893;28;20500;-71
2022/09/01 04:05:46;;;;;;;2.40;1.00;;;;;;;15.65;100.00;102449.53;5051721;28;20452;-71
2022/09/01 04:08:12;;;;;;;1.07;0.93;;;;;;;15.66;100.00;102447.66;5032708;28;20825;-71
2022/09/01 04:10:59;;;;;;;0.97;0.90;;;;;;;15.73;100.00;102454.81;5050301;28;20500;-71
2022/09/01 04:13:36;;;;;;;1.83;0.90;;;;;;;15.55;100.00;102406.56;5052050;28;20876;-71
2022/09/01 04:16:09;;;;;;;1.00;0.90;;;;;;;15.25;100.00;102359.91;5050999;28;20911;-71
2022/09/01 04:18:34;;;;;;;1.63;1.00;;;;;;;15.20;100.00;102415.56;5048923;28;20489;-71
2022/09/01 04:21:00;;;;;;;0.70;0.60;;;;;;;15.41;100.00;102404.75;5050937;28;20464;-71
2022/09/01 04:23:32;;;;;;;0.97;0.87;;;;;;;15.78;100.00;102444.25;5048404;28;20207;-71
2022/09/01 04:26:13;;;;;;;1.33;1.00;;;;;;;15.69;100.00;102442.72;5033548;28;20179;-71
2022/09/01 04:28:48;;;;;;;0.70;0.70;;;;;;;15.75;100.00;102441.94;5049087;28;20882;-71
2022/09/01 04:31:18;;;;;;;1.00;0.90;;;;;;;15.70;100.00;102435.44;5050024;28;20437;-71
2022/09/01 04:33:51;;;;;;;2.03;1.00;;;;;;;15.25;100.00;102361.78;5032510;28;20682;-73
2022/09/01 04:36:31;;;;;;;1.63;1.03;;;;;;;15.55;100.00;102381.38;5051262;28;20422;-70
2022/09/01 04:38:59;;;;;;;1.47;0.87;;;;;;;15.77;100.00;102436.34;5049707;28;20823;-71
2022/09/01 04:41:32;;;;;;;0.97;0.80;;;;;;;15.69;100.00;102436.47;5049963;28;20469;-71
2022/09/01 04:44:03;;;;;;;1.53;0.90;;;;;;;15.66;100.00;102426.03;5049896;28;20426;-70
2022/09/01 04:46:31;;;;;;;1.30;1.03;;;;;;;15.31;100.00;102363.69;5051182;28;20787;-71
2022/09/01 04:48:57;;;;;;;1.03;0.73;;;;;;;14.67;100.00;102286.13;5051457;28;20938;-71
2022/09/01 04:51:26;;;;;;;1.10;1.00;;;;;;;15.76;100.00;102431.94;5050924;28;20425;-71
2022/09/01 04:53:53;;;;;;;1.37;0.90;;;;;;;15.09;100.00;102352.84;5046177;28;20810;-73
2022/09/01 04:56:21;;;;;;;1.17;1.03;;;;;;;15.17;100.00;102380.81;5049169;28;20928;-70
2022/09/01 04:58:48;;;;;;;1.27;0.90;;;;;;;14.81;100.00;102323.06;5032568;28;20457;-71
2022/09/01 05:01:22;;;;;;;1.80;1.10;;;;;;;15.37;100.00;102436.75;5050619;28;20426;-71
2022/09/01 05:03:55;;;;;;;2.20;1.27;;;;;;;15.45;100.00;102433.09;5031243;28;20434;-71
2022/09/01 05:06:21;;;;;;;1.10;1.00;;;;;;;15.34;100.00;102434.44;5050924;28;20433;-71
2022/09/01 05:08:48;;;;;;;1.00;0.90;;;;;;;13.81;100.00;102249.91;5027594;28;21056;-71
2022/09/01 05:11:18;;;;;;;1.00;0.90;;;;;;;15.14;100.00;102418.00;5047502;28;20473;-71
2022/09/01 05:13:49;;;;;;;1.43;0.90;;;;;;;15.25;100.00;102446.41;5032702;28;20447;-71
2022/09/01 05:16:20;;;;;;;1.40;1.00;;;;;;;15.28;100.00;102447.88;5033074;28;20442;-71
2022/09/01 05:18:47;;;;;;;1.20;0.93;;;;;;;15.18;100.00;102447.34;5033644;28;20446;-71
2022/09/01 05:21:16;;;;;;;2.50;0.90;;;;;;;14.54;100.00;102350.78;5049083;28;20457;-71
2022/09/01 05:23:45;;;;;;;0.80;0.80;;;;;;;14.09;100.00;102274.34;5050743;28;20444;-71
2022/09/01 05:26:20;;;;;;;1.10;1.00;;;;;;;14.24;100.00;102307.59;5030005;28;20470;-71
2022/09/01 05:28:48;;;;;;;1.20;1.10;;;;;;;15.21;100.00;102449.66;5049330;28;20461;-71
2022/09/01 05:31:18;;;;;;;1.13;0.97;;;;;;;14.74;100.00;102369.94;5032334;28;20938;-71
2022/09/01 05:33:44;;;;;;;4.20;1.30;;;;;;;14.92;100.00;102373.03;5031354;28;20426;-71
2022/09/01 05:36:12;;;;;;;2.93;1.37;;;;;;;15.44;100.00;102458.44;5049116;28;20483;-71
2022/09/01 05:38:41;;;;;;;2.90;1.10;;;;;;;15.52;100.00;102449.38;5049558;28;20438;-72
2022/09/01 05:41:10;;;;;;;1.20;1.10;;;;;;;14.76;100.00;102330.06;5047003;28;20580;-71
2022/09/01 05:43:35;;;;;;;1.20;1.00;;;;;;;14.76;100.00;102308.47;5050528;28;20430;-71
2022/09/01 05:46:06;;;;;;;1.03;0.97;;;;;;;14.99;100.00;102381.25;5031585;28;20890;-72
2022/09/01 05:48:38;;;;;;;1.00;0.90;;;;;;;14.92;100.00;102343.31;5049673;28;20231;-72
2022/09/01 05:51:06;;;;;;;1.50;0.95;;;;;;;15.53;100.00;102462.69;5047207;28;20438;-71
2022/09/01 05:53:33;;;;;;;3.03;1.20;;;;;;;15.82;100.00;102442.84;5049367;28;20801;-72
2022/09/01 05:56:05;;;;;;;1.73;1.00;;;;;;;15.82;100.00;102447.41;5030799;28;20822;-72
2022/09/01 05:58:36;;;;;;;0.80;0.70;;;;;;;15.89;100.00;102439.38;5049013;28;20519;-72
2022/09/01 06:01:02;;;;;;;2.03;1.20;;;;;;;14.73;100.00;102271.03;5049821;28;20467;-72
2022/09/01 06:03:27;;;;;;;1.87;1.30;;;;;;;16.06;100.00;102470.53;5029320;28;20865;-71
2022/09/01 06:06:00;;;;;;;4.40;1.33;;;;;;;16.11;100.00;102454.50;5050228;28;20260;-72
2022/09/01 06:08:27;;;;;;;2.90;1.10;;;;;;;16.14;100.00;102454.16;5049326;28;20207;-71
2022/09/01 06:10:53;;;;;;;2.50;1.77;;;;;;;16.18;100.00;102449.19;5047191;28;20445;-72
2022/09/01 06:13:20;;;;;;;6.57;1.30;;;;;;;15.97;100.00;102410.28;5047669;28;20446;-72
2022/09/01 06:15:49;;;;;;;2.27;1.27;;;;;;;15.29;100.00;102352.22;5050608;28;20230;-71
2022/09/01 06:18:16;;;;;;;1.90;1.50;;;;;;;16.05;100.00;102460.72;5048974;28;20845;-71
2022/09/01 06:20:43;;;;;;;1.73;1.30;;;;;;;16.20;100.00;102453.34;5047584;28;20468;-71
2022/09/01 06:23:14;;;;;;;1.47;1.23;;;;;;;16.30;100.00;102455.72;5041233;28;20530;-71
2022/09/01 06:25:43;;;;;;;1.60;1.50;;;;;;;15.68;100.00;102359.03;5044834;28;20545;-71
2022/09/01 06:28:10;;;;;;;1.10;0.93;;;;;;;15.93;100.00;102414.41;5048887;28;20487;-71
2022/09/01 06:30:37;;;;;;;1.40;1.20;;;;;;;15.88;100.00;102397.94;5029994;28;20942;-71
2022/09/01 06:33:08;;;;;;;1.63;1.23;;;;;;;16.23;100.00;102463.78;5049279;28;20454;-72
2022/09/01 06:35:37;;;;;;;2.93;1.43;;;;;;;16.26;100.00;102427.38;5049768;28;20501;-71
2022/09/01 06:38:03;;;;;;;2.83;1.30;;;;;;;16.13;100.00;102411.84;5049226;28;20445;-72
2022/09/01 06:40:29;;;;;;;2.90;1.53;;;;;;;16.61;100.00;102463.41;5048597;28;20442;-71
2022/09/01 06:42:55;;;;;;;1.13;1.03;;;;;;;16.29;100.00;102410.72;5031133;28;20938;-71
2022/09/01 06:45:23;;;;;;;2.17;1.20;;;;;;;16.67;100.00;102478.03;5032423;28;20484;-71
2022/09/01 06:47:51;;;;;;;1.57;1.20;;;;;;;16.83;100.00;102479.59;5030389;28;20227;-71
2022/09/01 06:50:20;;;;;;;1.70;1.10;;;;;;;16.77;100.00;102481.25;5046865;28;20442;-72
2022/09/01 06:52:48;;;;;;;1.57;1.40;;;;;;;16.22;100.00;102356.50;5047065;28;20529;-72
2022/09/01 06:55:15;;;;;;;1.60;1.30;;;;;;;16.57;100.00;102404.41;5046607;28;20491;-72
2022/09/01 06:57:44;;;;;;;1.30;1.00;;;;;;;16.64;100.00;102433.22;5030915;28;20454;-71
2022/09/01 07:00:19;;;;;;;1.50;1.10;;;;;;;17.08;100.00;102475.34;5030404;28;20438;-72
2022/09/01 07:02:46;;;;;;;1.43;1.00;;;;;;;17.02;100.00;102435.50;5048982;28;20426;-72
2022/09/01 07:05:18;;;;;;;1.20;1.10;;;;;;;17.30;100.00;102483.34;5047488;28;20503;-71
2022/09/01 07:07:50;;;;;;;1.60;1.50;;;;;;;17.29;100.00;102484.41;5043899;28;20872;-72
2022/09/01 07:10:19;;;;;;;1.30;1.20;;;;;;;16.99;100.00;102426.94;5046687;28;20795;-72
2022/09/01 07:12:46;;;;;;;1.20;1.07;;;;;;;17.13;100.00;102437.63;5047771;28;20450;-71
2022/09/01 07:15:15;;;;;;;1.30;1.00;;;;;;;17.43;100.00;102485.28;5046537;28;20440;-72
2022/09/01 07:17:42;;;;;;;2.03;1.20;;;;;;;16.86;100.00;102396.03;5043145;28;21020;-72
2022/09/01 07:20:10;;;;;;;1.53;1.13;;;;;;;17.31;100.00;102464.16;5048035;28;20426;-72
2022/09/01 07:22:35;;;;;;;1.87;1.10;;;;;;;17.32;100.00;102436.00;5049062;28;20980;-72
2022/09/01 07:25:01;;;;;;;1.57;1.10;;;;;;;17.25;100.00;102423.50;5028693;28;20700;-72
2022/09/01 07:27:26;;;;;;;2.13;1.00;;;;;;;17.55;100.00;102475.50;5030237;28;20238;-72
2022/09/01 07:29:55;;;;;;;1.57;1.17;;;;;;;17.45;100.00;102464.22;5026909;28;20195;-72
2022/09/01 07:32:22;;;;;;;1.17;0.90;;;;;;;17.62;100.00;102466.34;5048779;28;20187;-72
2022/09/01 07:34:47;;;;;;;2.73;1.43;;;;;;;17.01;100.00;102352.53;5048547;28;20417;-73
2022/09/01 07:37:13;;;;;;;1.73;1.00;;;;;;;17.41;100.00;102412.22;5048330;28;20977;-72
2022/09/01 07:39:44;;;;;;;1.17;1.00;;;;;;;17.97;100.00;102473.50;5046391;28;20670;-72
2022/09/01 07:42:10;;;;;;;3.00;1.10;;;;;;;17.91;100.00;102480.59;5047061;28;20425;-72
2022/09/01 07:44:37;;;;;;;5.33;1.03;;;;;;;17.81;100.00;102455.72;5048088;28;20515;-72
2022/09/01 07:47:07;;;;;;;0.97;0.80;;;;;;;16.81;100.00;102289.31;5046558;28;20199;-72
2022/09/01 07:49:33;;;;;;;1.10;0.97;;;;;;;17.84;100.00;102439.88;5048239;28;20422;-72
2022/09/01 07:52:00;;;;;;;1.27;1.00;;;;;;;17.66;100.00;102398.09;5046371;28;20977;-72
2022/09/01 07:54:26;;;;;;;2.97;1.00;;;;;;;17.75;100.00;102410.41;5046189;28;20183;-71
2022/09/01 07:56:54;;;;;;;2.03;1.00;;;;;;;17.63;100.00;102364.91;5047066;28;20511;-72
2022/09/01 07:59:20;;;;;;;1.23;1.07;;;;;;;18.15;100.00;102459.31;5046891;28;20305;-72
2022/09/01 08:01:46;;;;;;;1.20;0.90;;;;;;;18.14;100.00;102472.03;5040043;28;20866;-72
2022/09/01 08:04:11;;;;;;;1.00;0.80;;;;;;;17.96;100.00;102442.78;5048675;28;20437;-72
2022/09/01 08:06:37;;;;;;;1.00;0.70;;;;;;;18.00;100.00;102470.38;5048733;28;20795;-72
2022/09/01 08:09:06;;;;;;;1.20;1.00;;;;;;;18.15;100.00;102467.44;5046261;28;20183;-72
2022/09/01 08:11:31;;;;;;;1.53;1.00;;;;;;;17.95;100.00;102430.28;5048124;28;20212;-72
2022/09/01 08:13:59;;;;;;;1.00;0.70;;;;;;;18.29;100.00;102478.09;5047492;28;20623;-72
2022/09/01 08:16:26;;;;;;;1.43;0.87;;;;;;;18.31;100.00;102472.44;5047168;28;20632;-71
2022/09/01 08:18:52;;;;;;;1.00;0.80;;;;;;;18.13;100.00;102447.81;5045900;28;20455;-72
2022/09/01 08:21:20;;;;;;;1.67;1.00;;;;;;;18.23;100.00;102443.63;5046864;28;20922;-70
2022/09/01 08:23:46;;;;;;;2.20;0.90;;;;;;;18.53;100.00;102459.44;5045138;28;20188;-71
2022/09/01 08:26:15;;;;;;;1.33;0.90;;;;;;;18.35;100.00;102451.97;5042846;28;20473;-71
2022/09/01 08:28:41;;;;;;;1.20;0.90;;;;;;;18.51;100.00;102446.09;5048019;28;20458;-71
2022/09/01 08:31:09;;;;;;;1.00;0.80;;;;;;;18.61;100.00;102461.13;5030448;28;20809;-71
2022/09/01 08:33:39;;;;;;;3.27;1.13;;;;;;;18.61;100.00;102453.78;5048451;28;20422;-71
2022/09/01 08:36:10;;;;;;;1.80;0.87;;;;;;;18.71;100.00;102451.44;5046006;28;20457;-71
2022/09/01 08:38:36;;;;;;;1.20;0.70;;;;;;;18.70;100.00;102438.91;5046921;28;20473;-71
2022/09/01 08:41:04;;;;;;;1.20;0.67;;;;;;;18.80;100.00;102456.69;5027948;28;20442;-72
2022/09/01 08:43:48;;;;;;;1.27;0.60;;;;;;;18.64;100.00;102433.50;5051638;28;20452;-71
2022/09/01 08:46:29;;;;;;;0.70;0.60;;;;;;;18.32;100.00;102356.50;5050442;28;20966;-71
2022/09/01 08:48:59;;;;;;;0.80;0.63;;;;;;;18.63;100.00;102388.34;5051016;28;20453;-71
2022/09/01 08:51:31;;;;;;;1.07;0.80;;;;;;;18.51;100.00;102390.88;5050885;28;20414;-72
2022/09/01 08:54:20;;;;;;;0.90;0.70;;;;;;;18.94;100.00;102433.84;5050099;28;20460;-72
2022/09/01 08:56:51;;;;;;;0.70;0.63;;;;;;;18.39;100.00;102360.00;5050446;28;20929;-71
2022/09/01 08:59:18;;;;;;;0.90;0.80;;;;;;;18.49;100.00;102366.66;5051591;28;20433;-71
2022/09/01 09:02:20;;;;;;;1.63;0.87;;;;;;;18.98;100.00;102426.94;5049345;28;20964;-71
2022/09/01 09:05:03;;;;;;;0.90;0.63;;;;;;;19.26;100.00;102447.47;5033537;28;21044;-71
2022/09/01 09:08:04;;;;;;;1.10;0.80;;;;;;;19.22;100.00;102435.38;5051069;28;20450;-72
2022/09/01 09:10:57;;;;;;;0.97;0.77;;;;;;;19.29;100.00;102438.88;5048537;28;20441;-71
2022/09/01 09:13:35;;;;;;;3.57;0.90;;;;;;;19.37;100.00;102433.19;5050935;28;20421;-72
2022/09/01 09:16:20;;;;;;;1.30;0.90;;;;;;;19.29;100.00;102439.72;5048012;28;20434;-72
2022/09/01 09:18:54;;;;;;;1.20;0.77;;;;;;;19.45;100.00;102427.50;5033312;28;20508;-71
2022/09/01 09:21:25;;;;;;;1.30;1.00;;;;;;;18.85;100.00;102339.97;5050599;28;21230;-71
2022/09/01 09:24:25;;;;;;;1.43;0.70;;;;;;;19.55;100.00;102422.38;5050755;28;20426;-72
2022/09/01 09:26:53;;;;;;;0.83;0.70;;;;;;;19.59;100.00;102426.34;5048362;28;20489;-71
2022/09/01 09:29:22;;;;;;;0.70;0.50;;;;;;;19.19;100.00;102344.16;5050273;28;20476;-71
2022/09/01 09:31:48;;;;;;;0.80;0.70;;;;;;;19.75;100.00;102413.28;5032559;28;20911;-71
2022/09/01 09:34:38;;;;;;;0.93;0.70;;;;;;;19.07;100.00;102308.69;5050118;28;20473;-71
2022/09/01 09:37:21;;;;;;;1.43;0.80;;;;;;;19.80;100.00;102410.72;5047670;28;20847;-71
2022/09/01 09:40:10;;;;;;;1.17;0.77;;;;;;;19.86;100.00;102409.84;5049478;28;20425;-71
2022/09/01 09:42:38;;;;;;;0.70;0.70;;;;;;;19.55;100.00;102342.63;5050463;28;20422;-71
2022/09/01 09:45:34;;;;;;;2.30;0.67;;;;;;;20.07;100.00;102420.31;5031366;28;20469;-71
2022/09/01 09:48:05;;;;;;;1.00;0.87;;;;;;;19.38;100.00;102315.13;5017601;28;20454;-71
2022/09/01 09:50:37;;;;;;;0.80;0.70;;;;;;;19.97;100.00;102392.78;5047657;28;21008;-71
2022/09/01 09:53:25;;;;;;;0.87;0.60;;;;;;;19.48;100.00;102298.31;5031653;28;20430;-71
2022/09/01 09:55:57;;;;;;;1.90;0.80;;;;;;;20.25;100.00;102397.72;5048121;28;20433;-71
2022/09/01 09:58:28;;;;;;;2.70;0.70;;;;;;;20.30;100.00;102383.41;5047871;28;20472;-71
2022/09/01 10:01:06;;;;;;;1.50;0.80;;;;;;;19.94;100.00;102307.97;5049718;28;21016;-72
2022/09/01 10:03:42;;;;;;;1.03;0.60;;;;;;;20.43;100.00;102388.72;5049800;28;20787;-71
2022/09/01 10:06:15;;;;;;;6.00;0.80;;;;;;;20.63;100.00;102387.69;5047729;28;20736;-71
2022/09/01 10:08:44;;;;;;;2.77;0.70;;;;;;;20.38;100.00;102336.78;5024972;28;20482;-71
2022/09/01 10:11:38;;;;;;;1.70;0.87;;;;;;;20.86;100.00;102389.69;5046748;28;20445;-71
2022/09/01 10:14:08;;;;;;;2.67;0.70;;;;;;;20.43;100.00;102330.66;5050288;28;20449;-71
2022/09/01 10:16:37;;;;;;;1.23;0.50;;;;;;;20.65;100.00;102370.03;5048280;28;20448;-71
2022/09/01 10:19:06;;;;;;;0.80;0.70;;;;;;;20.31;100.00;102372.31;5049211;28;20433;-71
2022/09/01 10:21:40;;;;;;;0.70;0.63;;;;;;;20.23;100.00;102364.44;5049623;28;20592;-71
2022/09/01 10:24:34;;;;;;;1.50;0.70;;;;;;;20.39;100.00;102373.88;5031171;28;20922;-71
2022/09/01 10:27:09;;;;;;;0.70;0.70;;;;;;;20.61;100.00;102382.47;5031415;28;20553;-71
2022/09/01 10:29:42;;;;;;;1.17;0.67;;;;;;;20.75;100.00;102374.97;5050294;28;20429;-71
2022/09/01 10:32:15;;;;;;;0.80;0.60;;;;;;;20.85;100.00;102344.41;5031182;28;20442;-71
2022/09/01 10:34:42;;;;;;;1.57;0.90;;;;;;;21.21;100.00;102376.22;5044927;28;20438;-72
2022/09/01 10:37:07;;;;;;;1.33;1.23;;;;;;;21.10;100.00;102357.91;5049358;28;20442;-72
2022/09/01 10:39:53;;;;;;;1.50;0.60;;;;;;;21.09;100.00;102345.31;5037477;28;20452;-72
2022/09/01 10:42:20;;;;;;;1.23;0.70;;;;;;;20.89;100.00;102348.34;5048549;28;20666;-71
2022/09/01 10:44:57;;;;;;;1.90;0.80;;;;;;;20.74;100.00;102346.00;5029795;28;21047;-72
2022/09/01 10:47:32;;;;;;;2.67;0.80;;;;;;;20.74;100.00;102340.56;5049026;28;20529;-71
2022/09/01 10:50:05;;;;;;;1.73;0.70;;;;;;;20.98;100.00;102372.34;5030019;28;20448;-72
2022/09/01 10:52:42;;;;;;;0.90;0.70;;;;;;;21.16;100.00;102362.44;5048226;28;20418;-72
2022/09/01 10:55:28;;;;;;;0.70;0.60;;;;;;;21.03;100.00;102327.16;5046369;28;20964;-72
2022/09/01 10:58:24;;;;;;;0.80;0.70;;;;;;;21.56;100.00;102359.09;5048859;28;20438;-72
2022/09/01 11:00:52;;;;;;;0.60;0.60;;;;;;;21.65;100.00;102349.50;5049792;28;20422;-72
2022/09/01 11:03:17;;;;;;;0.70;0.60;;;;;;;21.69;100.00;102358.88;5047549;28;20441;-72
2022/09/01 11:06:06;;;;;;;1.17;0.60;;;;;;;21.79;100.00;102350.94;5048851;28;20461;-72
2022/09/01 11:08:31;;;;;;;0.90;0.73;;;;;;;21.86;100.00;102353.53;5022049;28;20639;-71
2022/09/01 11:11:02;;;;;;;1.03;0.53;;;;;;;21.68;100.00;102349.03;5029584;28;20532;-72
2022/09/01 11:13:35;;;;;;;1.40;0.80;;;;;;;21.41;100.00;102352.19;5046465;28;20187;-71
2022/09/01 11:16:50;;;;;;;0.87;0.60;;;;;;;21.15;100.00;102344.41;5047258;28;20874;-72
2022/09/01 11:19:37;;;;;;;0.93;0.60;;;;;;;21.19;100.00;102337.41;5004818;28;20839;-71
2022/09/01 11:22:06;;;;;;;1.70;0.90;;;;;;;21.10;100.00;102274.16;5048329;28;20448;-72
2022/09/01 11:24:38;;;;;;;0.67;0.50;;;;;;;21.69;100.00;102347.94;5024294;28;20520;-72
2022/09/01 11:27:09;;;;;;;0.90;0.67;;;;;;;22.04;100.00;102344.38;5049762;28;20442;-72
2022/09/01 11:29:54;;;;;;;0.70;0.60;;;;;;;22.10;100.00;102335.22;5050762;28;20440;-72
2022/09/01 11:32:23;;;;;;;1.90;0.80;;;;;;;22.07;100.00;102335.69;5030872;28;20902;-72
2022/09/01 11:34:50;;;;;;;2.90;0.70;;;;;;;21.70;100.00;102234.09;5049557;28;20519;-72